Time;durP1;ratioP1;P1;durP2;ratioP2;P2;SDS_P1;SDS_P2;PMS_P1;PMS_P2;Temp;Humidity;BMP_temperature;BMP_pressure;BME280_temperature;BME280_humidity;BME280_pressure;Samples;Min_cycle;Max_cycle;Signal;HPM_P1;HPM_P2
2023/01/22 00:01:00;;;;;;;47.17;24.67;;;3.00;72.60;;;;;;5072044;28;20029;-13
2023/01/22 00:03:26;;;;;;;45.70;25.40;;;3.00;72.90;;;;;;5072444;28;20090;-13
2023/01/22 00:05:52;;;;;;;42.13;24.80;;;2.90;72.80;;;;;;5072528;28;20024;-12
2023/01/22 00:08:19;;;;;;;34.50;19.48;;;2.90;72.70;;;;;;5072350;28;20059;-13
2023/01/22 00:10:52;;;;;;;36.28;21.63;;;2.90;72.70;;;;;;5072255;28;20025;-13
2023/01/22 00:13:19;;;;;;;28.73;17.67;;;2.90;72.60;;;;;;5072109;28;20020;-14
2023/01/22 00:15:45;;;;;;;34.35;20.38;;;2.90;72.80;;;;;;5072365;28;20025;-13
2023/01/22 00:18:11;;;;;;;39.53;22.27;;;3.00;72.60;;;;;;5072469;28;20376;-12
2023/01/22 00:20:37;;;;;;;43.38;22.88;;;3.10;72.60;;;;;;5070797;28;20020;-12
2023/01/22 00:23:03;;;;;;;37.80;22.40;;;3.20;72.40;;;;;;5071794;28;20492;-12
2023/01/22 00:25:28;;;;;;;41.45;23.88;;;3.20;72.30;;;;;;5072214;28;20158;-13
2023/01/22 00:27:55;;;;;;;42.05;24.33;;;3.20;72.30;;;;;;5072164;28;20120;-13
2023/01/22 00:30:21;;;;;;;33.72;22.02;;;3.10;72.60;;;;;;5070671;28;20397;-13
2023/01/22 00:32:47;;;;;;;35.58;21.38;;;3.10;72.60;;;;;;5071722;28;20565;-13
2023/01/22 00:35:12;;;;;;;41.88;23.13;;;3.10;72.60;;;;;;5070754;28;20032;-13
2023/01/22 00:37:38;;;;;;;37.10;21.05;;;3.10;72.40;;;;;;5071801;28;20427;-12
2023/01/22 00:40:05;;;;;;;36.53;20.30;;;3.10;72.30;;;;;;5072121;28;20024;-13
2023/01/22 00:42:31;;;;;;;31.45;18.40;;;3.10;72.30;;;;;;5071976;28;20031;-12
2023/01/22 00:44:58;;;;;;;29.42;17.33;;;3.10;72.40;;;;;;5070477;28;20025;-12
2023/01/22 00:47:25;;;;;;;29.33;16.92;;;3.00;72.20;;;;;;5071846;28;20032;-13
2023/01/22 00:49:51;;;;;;;26.20;15.20;;;3.00;70.60;;;;;;5071650;28;20040;-13
2023/01/22 00:52:17;;;;;;;24.15;15.43;;;3.10;70.90;;;;;;5072192;28;20031;-12
2023/01/22 00:54:44;;;;;;;25.23;14.43;;;3.10;70.80;;;;;;5072088;28;20037;-12
2023/01/22 00:57:10;;;;;;;23.60;13.82;;;3.20;70.50;;;;;;5072078;28;20024;-13
2023/01/22 00:59:36;;;;;;;24.92;14.25;;;3.20;70.20;;;;;;5076008;28;20496;-13
2023/01/22 01:02:02;;;;;;;20.75;12.18;;;3.20;69.80;;;;;;5075246;28;20111;-13
2023/01/22 01:04:28;;;;;;;22.77;13.40;;;3.20;69.90;;;;;;5075191;28;20024;-14
2023/01/22 01:06:54;;;;;;;24.73;14.07;;;3.30;70.20;;;;;;5075197;28;20047;-12
2023/01/22 01:09:20;;;;;;;25.60;14.32;;;3.30;70.20;;;;;;5075486;28;20430;-13
2023/01/22 01:11:46;;;;;;;24.05;14.18;;;3.40;69.80;;;;;;5075421;28;20486;-13
2023/01/22 01:14:12;;;;;;;24.65;14.25;;;3.40;69.80;;;;;;5075201;28;20380;-13
2023/01/22 01:16:38;;;;;;;25.88;15.32;;;3.40;69.90;;;;;;5075182;28;20491;-13
2023/01/22 01:19:06;;;;;;;30.77;15.73;;;3.40;69.80;;;;;;5073389;28;20107;-12
2023/01/22 01:21:33;;;;;;;26.15;15.10;;;3.40;69.80;;;;;;5075124;28;20449;-12
2023/01/22 01:23:59;;;;;;;21.75;14.50;;;3.40;69.70;;;;;;5074845;28;20029;-13
2023/01/22 01:26:26;;;;;;;25.30;15.27;;;3.50;69.50;;;;;;5075340;28;20117;-12
2023/01/22 01:28:52;;;;;;;25.50;15.13;;;3.40;69.50;;;;;;5074516;28;20480;-11
2023/01/22 01:31:19;;;;;;;22.13;14.07;;;3.50;69.50;;;;;;5075113;28;20020;-12
2023/01/22 01:33:46;;;;;;;26.42;14.95;;;3.50;69.40;;;;;;5074261;28;20534;-11
2023/01/22 01:36:21;;;;;;;20.95;12.80;;;3.50;69.40;;;;;;5074974;28;20021;-11
2023/01/22 01:38:47;;;;;;;21.77;13.00;;;3.50;69.30;;;;;;5074394;28;20062;-12
2023/01/22 01:41:16;;;;;;;22.98;13.00;;;3.50;69.30;;;;;;5074526;28;20025;-13
2023/01/22 01:43:42;;;;;;;27.08;14.70;;;3.50;69.40;;;;;;5074768;28;20017;-13
2023/01/22 01:46:44;;;;;;;25.17;14.10;;;3.50;69.40;;;;;;5074673;28;20074;-12
2023/01/22 01:49:27;;;;;;;24.13;13.73;;;3.50;69.20;;;;;;5066690;28;20039;-12
2023/01/22 01:51:55;;;;;;;24.55;14.52;;;3.50;69.30;;;;;;5074434;28;20388;-13
2023/01/22 01:54:21;;;;;;;26.70;14.55;;;3.60;69.30;;;;;;5074479;28;20040;-13
2023/01/22 01:56:52;;;;;;;24.42;14.00;;;3.50;69.20;;;;;;5073997;28;20096;-13
2023/01/22 01:59:20;;;;;;;25.45;14.07;;;3.50;69.00;;;;;;5074240;28;20055;-13
2023/01/22 02:01:51;;;;;;;24.05;12.90;;;3.50;68.90;;;;;;5074395;28;20050;-13
2023/01/22 02:04:18;;;;;;;21.73;13.70;;;3.50;68.50;;;;;;5074424;28;20028;-13
2023/01/22 02:06:44;;;;;;;23.40;14.20;;;3.50;68.80;;;;;;5073999;28;20063;-13
2023/01/22 02:09:11;;;;;;;23.13;13.65;;;3.50;69.10;;;;;;5073949;28;20024;-14
2023/01/22 02:11:39;;;;;;;22.15;13.70;;;3.50;68.90;;;;;;5074208;28;20024;-13
2023/01/22 02:14:13;;;;;;;22.20;12.88;;;3.50;69.10;;;;;;5073716;28;20058;-14
2023/01/22 02:16:39;;;;;;;23.13;14.35;;;3.50;69.20;;;;;;5074160;28;20099;-14
2023/01/22 02:19:04;;;;;;;24.70;14.23;;;3.50;69.30;;;;;;5073572;28;20128;-14
2023/01/22 02:21:35;;;;;;;20.15;13.80;;;3.50;69.30;;;;;;5073878;28;20024;-14
2023/01/22 02:24:02;;;;;;;28.23;14.35;;;3.50;69.30;;;;;;5073653;28;20025;-14
2023/01/22 02:26:28;;;;;;;24.48;14.02;;;3.50;69.30;;;;;;5073468;28;20096;-14
2023/01/22 02:28:54;;;;;;;20.05;12.07;;;3.50;69.10;;;;;;5073982;28;20070;-15
2023/01/22 02:31:20;;;;;;;18.73;11.95;;;3.50;68.90;;;;;;5073649;28;20533;-14
2023/01/22 02:33:46;;;;;;;20.95;10.25;;;3.50;69.10;;;;;;5073140;28;20131;-14
2023/01/22 02:36:12;;;;;;;18.38;9.32;;;3.60;68.50;;;;;;5073715;28;20074;-13
2023/01/22 02:38:38;;;;;;;16.35;7.97;;;3.60;67.80;;;;;;5073621;28;20040;-14
2023/01/22 02:41:05;;;;;;;12.75;7.18;;;3.60;65.50;;;;;;5073163;28;20477;-13
2023/01/22 02:43:31;;;;;;;11.35;6.15;;;3.70;64.60;;;;;;5073266;28;20025;-13
2023/01/22 02:45:56;;;;;;;9.77;5.80;;;3.80;65.20;;;;;;5073365;28;20120;-13
2023/01/22 02:48:22;;;;;;;10.52;5.72;;;3.90;65.20;;;;;;5073039;28;20024;-14
2023/01/22 02:50:48;;;;;;;9.05;4.95;;;3.90;63.10;;;;;;5072960;28;20032;-13
2023/01/22 02:53:14;;;;;;;8.13;4.75;;;4.00;63.30;;;;;;5073235;28;20020;-15
2023/01/22 02:59:03;;;;;;;6.63;4.20;;;4.10;61.20;;;;;;5073061;28;20074;-14
2023/01/22 03:01:29;;;;;;;6.90;3.92;;;4.20;61.60;;;;;;5073029;28;20025;-14
2023/01/22 03:04:09;;;;;;;6.70;4.10;;;4.30;62.00;;;;;;5073115;28;20476;-15
2023/01/22 03:06:43;;;;;;;7.38;4.18;;;4.30;60.90;;;;;;5073006;28;20021;-15
2023/01/22 03:09:11;;;;;;;8.57;3.90;;;4.40;60.10;;;;;;5072791;28;20029;-14
2023/01/22 03:11:39;;;;;;;11.18;5.80;;;4.40;59.10;;;;;;5073261;28;20135;-13
2023/01/22 03:22:20;;;;;;;16.67;8.75;;;4.40;62.50;;;;;;5073638;28;20483;-14
2023/01/22 03:24:49;;;;;;;15.32;9.32;;;4.30;63.20;;;;;;5072699;28;20016;-14
2023/01/22 03:27:16;;;;;;;16.80;9.05;;;4.20;63.30;;;;;;5072612;28;20028;-13
2023/01/22 03:29:43;;;;;;;13.38;7.75;;;4.20;63.10;;;;;;5073123;28;20039;-13
2023/01/22 03:32:09;;;;;;;14.73;7.75;;;4.10;63.10;;;;;;5073210;28;20154;-14
2023/01/22 03:34:35;;;;;;;12.25;6.97;;;4.10;63.20;;;;;;5072278;28;20464;-13
2023/01/22 03:37:01;;;;;;;11.38;6.35;;;4.10;63.50;;;;;;5072721;28;20028;-13
2023/01/22 03:39:27;;;;;;;11.35;6.70;;;4.10;62.90;;;;;;5072497;28;20546;-13
2023/01/22 03:41:53;;;;;;;10.07;5.70;;;4.10;62.70;;;;;;5072701;28;20028;-13
2023/01/22 03:44:19;;;;;;;8.52;4.47;;;4.20;63.10;;;;;;5072409;28;20028;-14
2023/01/22 03:46:45;;;;;;;6.25;3.42;;;4.20;63.20;;;;;;5072951;28;20112;-14
2023/01/22 03:49:14;;;;;;;7.65;3.28;;;4.20;61.80;;;;;;5072472;28;20102;-13
2023/01/22 03:51:41;;;;;;;5.40;3.38;;;4.30;59.80;;;;;;5072463;28;20057;-14
2023/01/22 03:54:13;;;;;;;4.15;2.90;;;4.30;60.70;;;;;;5072312;28;20459;-14
2023/01/22 03:56:40;;;;;;;4.50;2.95;;;4.30;60.90;;;;;;5072741;28;20100;-14
2023/01/22 03:59:07;;;;;;;4.07;2.50;;;4.30;60.60;;;;;;5072111;28;20047;-13
2023/01/22 04:01:34;;;;;;;4.40;2.80;;;4.40;60.70;;;;;;5072340;28;20078;-14
2023/01/22 04:04:00;;;;;;;4.63;2.85;;;4.40;60.70;;;;;;5072042;28;20032;-14
2023/01/22 04:06:26;;;;;;;5.57;2.95;;;4.40;59.50;;;;;;5072292;28;20033;-13
2023/01/22 04:08:53;;;;;;;5.20;3.15;;;4.40;59.00;;;;;;5072314;28;20024;-14
2023/01/22 04:11:20;;;;;;;5.22;2.80;;;4.40;59.20;;;;;;5072617;28;20025;-14
2023/01/22 04:13:47;;;;;;;4.72;2.67;;;4.40;60.10;;;;;;5072106;28;20021;-14
2023/01/22 04:16:13;;;;;;;4.50;2.85;;;4.40;60.10;;;;;;5072127;28;20086;-13
2023/01/22 04:18:40;;;;;;;4.25;2.55;;;4.40;60.60;;;;;;5072135;28;20020;-14
2023/01/22 04:21:07;;;;;;;3.97;2.70;;;4.40;60.60;;;;;;5072345;28;20029;-14
2023/01/22 04:23:33;;;;;;;3.13;2.50;;;4.40;60.20;;;;;;5072095;28;20472;-13
2023/01/22 04:25:59;;;;;;;5.28;2.60;;;4.40;60.50;;;;;;5072089;28;20021;-14
2023/01/22 04:28:25;;;;;;;5.40;2.90;;;4.40;60.70;;;;;;5072441;28;20074;-13
2023/01/22 04:30:53;;;;;;;5.55;2.88;;;4.40;59.90;;;;;;5072143;28;20104;-14
2023/01/22 04:33:19;;;;;;;4.97;2.78;;;4.30;60.40;;;;;;5074384;28;20175;-14
2023/01/22 04:35:52;;;;;;;3.58;2.53;;;4.30;60.70;;;;;;5075604;28;20032;-14
2023/01/22 04:38:18;;;;;;;4.00;2.72;;;4.30;60.80;;;;;;5075761;28;20024;-14
2023/01/22 04:40:43;;;;;;;4.45;2.80;;;4.20;61.00;;;;;;5076052;28;20021;-13
2023/01/22 04:43:09;;;;;;;4.68;2.53;;;4.20;61.20;;;;;;5075314;28;20507;-13
2023/01/22 04:45:35;;;;;;;5.88;3.20;;;4.20;61.00;;;;;;5075665;28;20021;-14
2023/01/22 04:48:01;;;;;;;4.88;2.80;;;4.20;60.90;;;;;;5075810;28;20024;-13
2023/01/22 04:50:31;;;;;;;4.57;2.60;;;4.20;60.70;;;;;;5075429;28;20055;-14
2023/01/22 04:52:58;;;;;;;4.03;2.65;;;4.10;61.40;;;;;;5075255;28;20020;-13
2023/01/22 04:55:24;;;;;;;4.47;2.55;;;4.10;60.50;;;;;;5075364;28;20025;-13
2023/01/22 04:57:53;;;;;;;4.22;2.45;;;4.20;61.60;;;;;;5075286;28;20028;-15
2023/01/22 05:00:19;;;;;;;3.85;2.70;;;4.10;61.50;;;;;;5075719;28;20032;-13
2023/01/22 05:02:45;;;;;;;4.65;2.50;;;4.10;61.60;;;;;;5075549;28;20029;-13
2023/01/22 05:05:11;;;;;;;4.13;2.55;;;4.10;61.80;;;;;;5075143;28;20028;-14
2023/01/22 05:07:37;;;;;;;4.18;2.10;;;4.10;61.80;;;;;;5075218;28;20035;-15
2023/01/22 05:10:03;;;;;;;4.70;2.47;;;4.10;61.00;;;;;;5075177;28;20029;-14
2023/01/22 05:12:30;;;;;;;3.65;2.35;;;4.10;61.60;;;;;;5075368;28;20031;-14
2023/01/22 05:14:56;;;;;;;4.80;2.08;;;4.10;61.90;;;;;;5074881;28;20063;-14
2023/01/22 05:17:21;;;;;;;5.68;2.40;;;4.10;61.80;;;;;;5075507;28;20063;-13
2023/01/22 05:19:47;;;;;;;5.40;3.25;;;4.10;62.10;;;;;;5074872;28;20040;-13
2023/01/22 05:22:13;;;;;;;3.15;2.35;;;4.10;61.40;;;;;;5074796;28;20494;-13
2023/01/22 05:24:39;;;;;;;3.97;2.53;;;4.10;61.60;;;;;;5074884;28;20138;-14
2023/01/22 05:27:05;;;;;;;4.55;2.85;;;4.10;61.40;;;;;;5074672;28;20299;-13
2023/01/22 05:29:31;;;;;;;4.95;2.60;;;4.10;61.20;;;;;;5075160;28;20089;-13
2023/01/22 05:31:57;;;;;;;3.97;2.50;;;4.10;60.90;;;;;;5075041;28;20079;-14
2023/01/22 05:34:24;;;;;;;4.80;2.40;;;4.00;61.60;;;;;;5074346;28;20040;-13
2023/01/22 05:36:50;;;;;;;3.45;2.35;;;4.00;61.00;;;;;;5074565;28;20020;-14
2023/01/22 05:39:16;;;;;;;5.07;2.63;;;4.00;61.60;;;;;;5074840;28;20027;-13
2023/01/22 05:41:43;;;;;;;3.38;2.25;;;4.00;61.80;;;;;;5074867;28;20043;-14
2023/01/22 05:44:11;;;;;;;4.22;2.65;;;3.90;61.50;;;;;;5074007;28;20126;-13
2023/01/22 05:46:37;;;;;;;3.80;2.40;;;3.90;62.40;;;;;;5074631;28;20036;-13
2023/01/22 05:49:03;;;;;;;4.20;2.63;;;3.90;62.40;;;;;;5074431;28;20032;-13
2023/01/22 05:51:29;;;;;;;4.20;2.30;;;3.90;62.60;;;;;;5074479;28;20060;-12
2023/01/22 05:53:55;;;;;;;2.88;2.47;;;3.90;62.60;;;;;;5073159;28;20071;-16
2023/01/22 05:56:20;;;;;;;3.88;2.35;;;3.90;62.60;;;;;;5074739;28;20036;-12
2023/01/22 05:58:46;;;;;;;4.85;2.60;;;3.90;62.50;;;;;;5074283;28;20020;-14
2023/01/22 06:01:13;;;;;;;4.07;2.85;;;3.80;62.50;;;;;;5074554;28;20401;-13
2023/01/22 06:03:39;;;;;;;4.43;2.35;;;3.80;62.60;;;;;;5074191;28;20101;-13
2023/01/22 06:06:09;;;;;;;4.15;2.53;;;3.70;62.30;;;;;;5074303;28;20178;-14
2023/01/22 06:08:35;;;;;;;5.07;2.65;;;3.70;62.60;;;;;;5073879;28;20551;-14
2023/01/22 06:11:03;;;;;;;5.60;2.72;;;3.70;62.80;;;;;;5073982;28;20100;-14
2023/01/22 06:13:30;;;;;;;8.00;3.72;;;3.70;63.10;;;;;;5074267;28;20029;-14
2023/01/22 06:15:56;;;;;;;7.38;3.40;;;3.70;63.00;;;;;;5074028;28;20484;-13
2023/01/22 06:18:23;;;;;;;5.25;2.97;;;3.70;63.00;;;;;;5073951;28;20021;-13
2023/01/22 06:20:49;;;;;;;5.95;3.38;;;3.70;63.10;;;;;;5073295;28;20029;-13
2023/01/22 06:23:16;;;;;;;6.80;3.40;;;3.70;63.00;;;;;;5074087;28;20038;-13
2023/01/22 06:25:42;;;;;;;5.88;2.83;;;3.60;62.90;;;;;;5073582;28;20056;-12
2023/01/22 06:28:08;;;;;;;5.65;2.80;;;3.60;63.00;;;;;;5073857;28;20111;-13
2023/01/22 06:30:35;;;;;;;4.97;2.80;;;3.60;63.20;;;;;;5073693;28;20106;-13
2023/01/22 06:33:01;;;;;;;4.22;2.40;;;3.60;63.40;;;;;;5071756;28;20051;-14
2023/01/22 06:35:27;;;;;;;3.80;2.35;;;3.60;63.60;;;;;;5073294;28;20045;-13
2023/01/22 06:37:53;;;;;;;5.32;2.60;;;3.60;63.70;;;;;;5073499;28;20028;-13
2023/01/22 06:40:19;;;;;;;4.05;2.70;;;3.60;63.90;;;;;;5073583;28;20025;-13
2023/01/22 06:42:45;;;;;;;3.42;2.63;;;3.60;64.00;;;;;;5072126;28;20097;-13
2023/01/22 06:45:11;;;;;;;3.70;2.60;;;3.50;64.10;;;;;;5073573;28;20063;-13
2023/01/22 06:47:41;;;;;;;4.78;2.90;;;3.50;64.20;;;;;;5073386;28;20032;-14
2023/01/22 06:50:08;;;;;;;4.18;2.65;;;3.50;64.30;;;;;;5072994;28;20033;-14
2023/01/22 06:52:34;;;;;;;4.57;2.63;;;3.50;64.30;;;;;;5073247;28;20377;-14
2023/01/22 06:54:59;;;;;;;3.92;2.50;;;3.50;64.40;;;;;;5072446;28;20040;-14
2023/01/22 06:57:25;;;;;;;3.97;2.30;;;3.40;64.00;;;;;;5072994;28;20353;-14
2023/01/22 06:59:52;;;;;;;4.82;2.78;;;3.40;63.90;;;;;;5071844;28;20036;-13
2023/01/22 07:02:18;;;;;;;4.20;2.70;;;3.50;64.00;;;;;;5073134;28;20066;-13
2023/01/22 07:04:44;;;;;;;6.88;2.80;;;3.50;63.50;;;;;;5073101;28;20027;-13
2023/01/22 07:07:11;;;;;;;5.82;2.83;;;3.50;63.50;;;;;;5073077;28;20032;-13
2023/01/22 07:09:37;;;;;;;4.07;2.85;;;3.50;63.90;;;;;;5072886;28;20477;-13
2023/01/22 07:12:03;;;;;;;6.90;3.50;;;3.50;64.00;;;;;;5073058;28;20074;-13
2023/01/22 07:14:32;;;;;;;5.93;3.28;;;3.60;63.90;;;;;;5072940;28;20025;-13
2023/01/22 07:16:58;;;;;;;7.50;3.60;;;3.60;63.00;;;;;;5072711;28;20045;-13
2023/01/22 07:19:24;;;;;;;7.05;3.40;;;3.60;63.60;;;;;;5073068;28;20102;-14
2023/01/22 07:21:49;;;;;;;9.40;4.30;;;3.70;63.10;;;;;;5073002;28;20063;-13
2023/01/22 07:24:15;;;;;;;7.70;3.88;;;3.70;63.20;;;;;;5073038;28;20103;-13
2023/01/22 07:26:42;;;;;;;6.70;3.40;;;3.80;63.30;;;;;;5072581;28;20468;-13
2023/01/22 07:29:09;;;;;;;5.20;3.40;;;3.80;63.60;;;;;;5072466;28;20423;-14
2023/01/22 07:31:35;;;;;;;6.10;3.03;;;3.90;63.80;;;;;;5072645;28;20469;-13
2023/01/22 07:34:02;;;;;;;7.32;3.50;;;4.00;63.70;;;;;;5072141;28;20131;-13
2023/01/22 07:36:27;;;;;;;7.00;3.40;;;4.00;63.40;;;;;;5072970;28;20078;-13
2023/01/22 07:38:54;;;;;;;4.47;2.88;;;4.00;63.30;;;;;;5072781;28;20048;-14
2023/01/22 07:41:19;;;;;;;6.20;3.30;;;4.10;63.20;;;;;;5072718;28;20021;-13
2023/01/22 07:43:48;;;;;;;6.20;3.28;;;4.10;63.40;;;;;;5072784;28;20127;-13
2023/01/22 07:46:14;;;;;;;5.45;3.20;;;4.20;63.50;;;;;;5072385;28;20122;-13
2023/01/22 07:48:40;;;;;;;5.90;2.85;;;4.20;62.90;;;;;;5072723;28;20024;-13
2023/01/22 07:51:06;;;;;;;4.85;2.90;;;4.20;63.40;;;;;;5072011;28;20055;-12
2023/01/22 07:53:33;;;;;;;6.43;3.10;;;4.20;63.50;;;;;;5072644;28;20028;-14
2023/01/22 07:56:04;;;;;;;8.57;3.05;;;4.20;63.50;;;;;;5072352;28;20021;-12
2023/01/22 07:58:30;;;;;;;5.32;2.97;;;4.30;63.60;;;;;;5072537;28;20373;-13
2023/01/22 08:00:56;;;;;;;7.22;2.95;;;4.40;63.30;;;;;;5072248;28;20028;-13
2023/01/22 08:03:22;;;;;;;8.43;4.10;;;4.40;63.50;;;;;;5072343;28;20029;-13
2023/01/22 08:05:48;;;;;;;10.15;4.97;;;4.40;63.40;;;;;;5072463;28;20032;-13
2023/01/22 08:08:16;;;;;;;10.27;4.35;;;4.50;63.00;;;;;;5076192;28;20358;-13
2023/01/22 08:10:43;;;;;;;8.95;4.60;;;4.60;63.00;;;;;;5076242;28;20406;-13
2023/01/22 08:13:09;;;;;;;8.82;3.90;;;4.70;62.70;;;;;;5076281;28;20366;-13
2023/01/22 08:15:35;;;;;;;9.40;4.57;;;4.70;62.60;;;;;;5076326;28;20395;-13
2023/01/22 08:18:01;;;;;;;10.10;5.10;;;4.80;62.80;;;;;;5076054;28;20028;-13
2023/01/22 08:20:27;;;;;;;10.00;4.50;;;4.90;61.90;;;;;;5076028;28;20107;-13
2023/01/22 08:22:58;;;;;;;11.02;4.25;;;4.90;62.00;;;;;;5074493;28;20031;-13
2023/01/22 08:25:24;;;;;;;8.07;3.97;;;5.00;61.70;;;;;;5076227;28;20023;-12
2023/01/22 08:27:49;;;;;;;9.85;4.85;;;5.10;62.20;;;;;;5074695;28;20028;-13
2023/01/22 08:30:15;;;;;;;10.63;5.30;;;5.20;62.00;;;;;;5075779;28;20044;-13
2023/01/22 08:32:43;;;;;;;7.15;4.45;;;5.30;61.70;;;;;;5075600;28;20024;-12
2023/01/22 08:35:10;;;;;;;10.18;4.65;;;5.40;60.70;;;;;;5075440;28;20464;-13
2023/01/22 08:37:36;;;;;;;8.27;4.32;;;5.50;60.80;;;;;;5075924;28;20055;-12
2023/01/22 08:40:03;;;;;;;9.30;4.45;;;5.60;61.30;;;;;;5075970;28;20081;-13
2023/01/22 08:42:29;;;;;;;8.00;3.85;;;5.70;60.20;;;;;;5075519;28;20040;-12
2023/01/22 08:44:55;;;;;;;10.13;4.55;;;5.70;60.80;;;;;;5075276;28;20029;-13
2023/01/22 08:47:21;;;;;;;6.95;4.22;;;5.80;60.10;;;;;;5076114;28;20365;-13
2023/01/22 08:49:47;;;;;;;9.23;4.50;;;5.90;60.30;;;;;;5075482;28;20034;-12
2023/01/22 08:52:12;;;;;;;7.35;4.10;;;5.90;60.50;;;;;;5075376;28;20102;-14
2023/01/22 08:54:38;;;;;;;9.43;4.03;;;5.90;60.40;;;;;;5075483;28;20025;-13
2023/01/22 08:57:04;;;;;;;8.93;4.63;;;5.90;60.40;;;;;;5075200;28;20031;-13
2023/01/22 08:59:30;;;;;;;7.55;4.15;;;5.90;60.60;;;;;;5073966;28;20078;-13
2023/01/22 09:01:58;;;;;;;8.38;4.25;;;5.90;60.20;;;;;;5075269;28;20384;-13
2023/01/22 09:04:25;;;;;;;8.65;4.72;;;5.90;60.10;;;;;;5075099;28;20104;-13
2023/01/22 09:06:50;;;;;;;10.45;4.63;;;5.90;60.70;;;;;;5074997;28;20025;-12
2023/01/22 09:09:16;;;;;;;10.13;4.93;;;5.90;60.50;;;;;;5075134;28;20070;-14
2023/01/22 09:11:43;;;;;;;8.93;4.40;;;5.90;59.00;;;;;;5075035;28;20415;-13
2023/01/22 09:14:09;;;;;;;10.43;5.03;;;5.90;60.20;;;;;;5075243;28;20040;-13
2023/01/22 09:16:36;;;;;;;9.85;4.63;;;6.00;60.20;;;;;;5075258;28;20051;-13
2023/01/22 09:19:02;;;;;;;10.02;4.50;;;6.10;60.60;;;;;;5073668;28;20020;-13
2023/01/22 09:21:28;;;;;;;8.10;4.75;;;6.30;60.40;;;;;;5075142;28;20052;-13
2023/01/22 09:23:54;;;;;;;10.45;4.47;;;6.40;59.30;;;;;;5075210;28;20457;-13
2023/01/22 09:26:20;;;;;;;11.05;5.40;;;6.60;59.50;;;;;;5075164;28;20107;-14
2023/01/22 09:28:46;;;;;;;10.45;4.97;;;6.70;56.00;;;;;;5074961;28;20048;-13
2023/01/22 09:31:12;;;;;;;7.28;4.38;;;6.90;57.60;;;;;;5073494;28;20449;-13
2023/01/22 09:33:38;;;;;;;6.70;3.80;;;6.90;56.50;;;;;;5074447;28;20068;-14
2023/01/22 09:36:13;;;;;;;6.35;3.92;;;7.00;56.90;;;;;;5074869;28;20032;-12
2023/01/22 09:38:39;;;;;;;8.70;4.13;;;7.00;56.60;;;;;;5074897;28;20031;-13
2023/01/22 09:41:34;;;;;;;8.73;4.88;;;7.10;56.50;;;;;;5074302;28;20020;-13
2023/01/22 09:44:11;;;;;;;12.45;6.20;;;7.10;55.00;;;;;;5074925;28;20044;-11
2023/01/22 09:46:47;;;;;;;9.65;5.03;;;7.20;55.10;;;;;;5074844;28;20024;-13
2023/01/22 09:49:19;;;;;;;8.90;4.40;;;7.30;55.20;;;;;;5074699;28;20039;-13
2023/01/22 09:51:56;;;;;;;8.65;4.60;;;7.40;56.50;;;;;;5074643;28;20032;-12
2023/01/22 09:54:23;;;;;;;7.57;4.28;;;7.50;54.70;;;;;;5074271;28;20040;-12
2023/01/22 09:56:52;;;;;;;9.10;5.15;;;7.50;55.10;;;;;;5074133;28;20035;-13
2023/01/22 09:59:21;;;;;;;10.48;5.78;;;7.60;55.90;;;;;;5074570;28;20028;-13
2023/01/22 10:01:59;;;;;;;8.68;4.28;;;7.70;56.00;;;;;;5074172;28;20427;-14
2023/01/22 10:04:25;;;;;;;8.80;4.10;;;7.80;54.30;;;;;;5074175;28;20039;-12
2023/01/22 10:06:54;;;;;;;9.98;5.95;;;7.80;52.80;;;;;;5074253;28;20024;-13
2023/01/22 10:09:20;;;;;;;7.65;4.63;;;7.90;54.30;;;;;;5073969;28;20024;-12
2023/01/22 10:11:51;;;;;;;9.55;5.97;;;8.00;54.40;;;;;;5074204;28;20031;-13
2023/01/22 10:14:21;;;;;;;7.63;4.32;;;8.10;55.10;;;;;;5074072;28;20025;-13
2023/01/22 10:16:48;;;;;;;7.65;4.22;;;8.10;52.80;;;;;;5074652;28;20062;-12
2023/01/22 10:19:52;;;;;;;7.88;4.47;;;8.20;54.00;;;;;;5073735;28;20021;-12
2023/01/22 10:22:25;;;;;;;10.48;4.65;;;8.30;54.30;;;;;;5071838;28;20396;-13
2023/01/22 10:24:52;;;;;;;8.75;4.47;;;8.60;51.40;;;;;;5073406;28;20029;-13
2023/01/22 10:27:38;;;;;;;8.50;4.50;;;8.90;52.60;;;;;;5073518;28;20033;-13
2023/01/22 10:30:23;;;;;;;6.53;3.40;;;9.20;51.60;;;;;;5073643;28;20087;-13
2023/01/22 10:33:03;;;;;;;6.47;3.70;;;9.40;51.80;;;;;;5073032;28;20362;-13
2023/01/22 10:35:31;;;;;;;5.63;3.55;;;9.50;51.20;;;;;;5073603;28;20029;-13
2023/01/22 10:37:58;;;;;;;6.13;3.75;;;9.60;51.00;;;;;;5073454;28;20114;-12
2023/01/22 10:40:44;;;;;;;7.40;3.85;;;9.50;50.50;;;;;;5073391;28;20039;-14
2023/01/22 10:43:13;;;;;;;6.00;3.50;;;9.40;50.00;;;;;;5073271;28;20032;-12
2023/01/22 10:46:03;;;;;;;5.32;3.53;;;9.40;51.70;;;;;;5073511;28;20020;-11
2023/01/22 10:48:29;;;;;;;5.50;3.30;;;9.40;50.50;;;;;;5073309;28;20032;-12
2023/01/22 10:51:14;;;;;;;7.32;3.70;;;9.30;50.50;;;;;;5072910;28;20025;-12
2023/01/22 10:53:52;;;;;;;7.38;4.10;;;9.30;49.90;;;;;;5073448;28;20047;-12
2023/01/22 10:56:32;;;;;;;6.20;3.35;;;9.20;51.30;;;;;;5073480;28;20039;-14
2023/01/22 10:59:02;;;;;;;6.88;3.75;;;9.20;51.60;;;;;;5073023;28;20073;-12
2023/01/22 11:01:36;;;;;;;8.98;5.50;;;9.30;51.30;;;;;;5072976;28;20111;-12
2023/01/22 11:04:24;;;;;;;9.23;4.97;;;9.40;50.90;;;;;;5072977;28;20107;-13
2023/01/22 11:06:58;;;;;;;6.38;4.03;;;9.80;48.80;;;;;;5073046;28;20028;-13
2023/01/22 11:09:42;;;;;;;5.43;3.58;;;10.20;49.20;;;;;;5073123;28;20074;-13
2023/01/22 11:12:20;;;;;;;4.22;2.83;;;10.50;49.00;;;;;;5072925;28;20031;-13
2023/01/22 11:14:54;;;;;;;4.47;2.80;;;10.60;45.80;;;;;;5072559;28;20025;-13
2023/01/22 11:17:31;;;;;;;5.97;3.30;;;10.60;46.50;;;;;;5072982;28;20496;-12
2023/01/22 11:20:02;;;;;;;6.03;3.00;;;10.60;44.00;;;;;;5073008;28;20025;-13
2023/01/22 11:22:36;;;;;;;6.55;3.25;;;10.60;45.20;;;;;;5073113;28;20033;-14
2023/01/22 11:25:02;;;;;;;4.60;3.20;;;10.70;45.40;;;;;;5072560;28;20099;-13
2023/01/22 11:27:39;;;;;;;4.53;2.90;;;10.50;44.70;;;;;;5072931;28;20027;-12
2023/01/22 11:30:15;;;;;;;4.75;3.00;;;10.60;46.30;;;;;;5071454;28;20060;-13
2023/01/22 11:33:00;;;;;;;3.47;2.63;;;10.60;45.80;;;;;;5072837;28;20107;-12
2023/01/22 11:35:59;;;;;;;7.00;3.28;;;10.40;44.70;;;;;;5072620;28;20067;-13
2023/01/22 11:38:45;;;;;;;5.32;2.92;;;10.40;47.40;;;;;;5072808;28;20017;-13
2023/01/22 11:41:17;;;;;;;5.25;3.33;;;10.40;46.50;;;;;;5072121;28;20024;-13
2023/01/22 11:44:04;;;;;;;6.38;3.45;;;10.40;45.70;;;;;;5072630;28;20481;-12
2023/01/22 11:46:35;;;;;;;7.28;3.58;;;10.30;47.90;;;;;;5072763;28;20032;-11
2023/01/22 11:49:12;;;;;;;7.03;3.65;;;10.40;47.10;;;;;;5072588;28;20384;-13
2023/01/22 11:51:57;;;;;;;6.13;3.30;;;10.60;46.70;;;;;;5072918;28;20020;-12
2023/01/22 11:54:28;;;;;;;5.13;3.50;;;10.80;44.80;;;;;;5072507;28;20506;-12
2023/01/22 11:57:06;;;;;;;4.70;3.05;;;10.70;45.80;;;;;;5070851;28;20032;-13
2023/01/22 11:59:48;;;;;;;5.43;3.35;;;10.90;45.60;;;;;;5072389;28;20189;-12
2023/01/22 12:02:36;;;;;;;4.63;3.00;;;10.90;45.90;;;;;;5072675;28;20139;-12
2023/01/22 12:05:28;;;;;;;5.10;2.75;;;10.90;45.00;;;;;;5072123;28;20389;-13
2023/01/22 12:08:37;;;;;;;6.00;3.17;;;10.90;45.00;;;;;;5072382;28;20384;-12
2023/01/22 12:11:21;;;;;;;7.05;3.70;;;10.90;43.60;;;;;;5072065;28;20035;-12
2023/01/22 12:13:53;;;;;;;3.38;2.67;;;10.90;46.20;;;;;;5072698;28;20471;-11
2023/01/22 12:16:52;;;;;;;2.10;1.90;;;11.00;44.40;;;;;;5072147;28;20078;-12
2023/01/22 12:19:36;;;;;;;2.72;2.15;;;10.40;43.80;;;;;;5072322;28;20570;-12
2023/01/22 12:22:15;;;;;;;;;;;10.10;46.70;;;;;;5072975;28;20035;-13
2023/01/22 12:24:46;;;;;;;4.18;2.47;;;9.90;47.30;;;;;;5072559;28;19911;-14
2023/01/22 12:27:25;;;;;;;2.17;1.77;;;9.90;47.90;;;;;;5070923;28;20032;-12
2023/01/22 12:29:57;;;;;;;3.13;1.80;;;9.80;48.30;;;;;;5072401;28;20028;-13
2023/01/22 12:32:26;;;;;;;2.28;1.90;;;9.60;48.30;;;;;;5072246;28;20097;-12
2023/01/22 12:35:01;;;;;;;3.85;2.20;;;9.60;50.10;;;;;;5071362;28;20492;-11
2023/01/22 12:37:38;;;;;;;3.45;2.08;;;9.80;49.30;;;;;;5072249;28;20499;-11
2023/01/22 12:40:39;;;;;;;3.30;1.98;;;9.90;47.60;;;;;;5072376;28;20025;-11
2023/01/22 12:43:06;;;;;;;3.38;1.80;;;10.10;49.40;;;;;;5071663;28;20037;-12
2023/01/22 12:45:55;;;;;;;2.30;1.70;;;10.40;50.30;;;;;;5072043;28;20071;-12
2023/01/22 12:48:34;;;;;;;2.35;1.17;;;10.40;49.90;;;;;;5066271;28;20449;-13
2023/01/22 12:51:00;;;;;;;2.22;1.90;;;10.40;50.10;;;;;;5071538;28;20024;-13
2023/01/22 12:53:27;;;;;;;3.53;1.80;;;10.30;48.50;;;;;;5072928;28;20035;-12
2023/01/22 12:55:57;;;;;;;2.30;1.80;;;10.20;50.00;;;;;;5075477;28;20114;-13
2023/01/22 12:58:26;;;;;;;3.83;1.67;;;10.00;50.70;;;;;;5075681;28;20025;-14
2023/01/22 13:01:03;;;;;;;2.70;2.00;;;10.00;51.90;;;;;;5075190;28;20369;-13
2023/01/22 13:03:29;;;;;;;2.08;1.73;;;10.00;52.50;;;;;;5075836;28;20032;-14
2023/01/22 13:05:56;;;;;;;2.47;1.75;;;10.00;52.20;;;;;;5075249;28;20051;-13
2023/01/22 13:08:42;;;;;;;1.80;1.48;;;10.10;51.70;;;;;;5075131;28;20040;-13
2023/01/22 13:11:25;;;;;;;3.35;1.70;;;9.90;51.10;;;;;;5075209;28;20036;-14
2023/01/22 13:13:55;;;;;;;2.47;1.80;;;9.60;52.70;;;;;;5075111;28;20064;-13